Brewton, AL (36427)

12:24 AM CDT on July 11, 2014 (GMT -0500)
Jenkins Farm (KFLJAY6) Elev 262 ft | 30.95 °N, 87.13 °W | Change Station

Current weather conditions updated 10 minutes ago

Clear
Clear
73.3 °F
Feels Like 73.3 °F
N
0.0
Wind Variable Wind from West
Gusts 1.0 mph

Today is forecast to be nearly the same temperature as yesterday.

Today
High -- | Low -- °F
--% Chance of Precip.
Yesterday
High -- | Low -- °F
Precip. -- in
5:52 AM 7:54 PM
Waxing Gibbous, 98% visible
Pressure 30.11 in
Visibility 10.0 miles
Clouds Clear
Dew Point 72 °F
Humidity 95%
Rainfall 0.00 in
Snow Depth Not available.
UV 0 out of 12
Pollen 1.60 out of 12
Air Quality Not available.
Flu Activity Sporadic
METAR KGZH 110453Z AUTO 00000KT 10SM CLR 24/22 A3012 RMK AO2 SLP195 T02390217

More Conditions Fewer Conditions

Pressure 30.11 in
Visibility 10.0 miles
Clouds Clear
Dew Point 72 °F
Humidity 95%
Rainfall 0.00 in
Snow Depth Not available.
UV 0 out of 12
Pollen 1.60 out of 12
Air Quality Not available.
Flu Activity Sporadic
METAR KGZH 110453Z AUTO 00000KT 10SM CLR 24/22 A3012 RMK AO2 SLP195 T02390217

More Conditions Fewer Conditions

10-Day Weather Forecast

Almanac

Astronomy

Jul. 11, 2014 Rise Set
Actual Time 5:52 AM CDT 7:54 PM CDT
Civil Twilight 5:25 AM CDT 8:22 PM CDT
Nautical Twilight 4:51 AM CDT 8:55 PM CDT
Astronomical Twilight 4:16 AM CDT 9:30 PM CDT
Moon 7:09 PM CDT 5:00 AM CDT
Length of Visible Light 14h 56m
Length of Day
14h 01m
Tomorrow will be 0m 49s shorter.
Waxing Gibbous, 98% of the Moon is Illuminated
Today
Waxing Gibbous
Jul 12
Full
Jul 18
Last Quarter
Jul 26
New
Aug 3
First Quarter

Today's Extremes

State Highs State Lows

Community

WunderPhotos

Upload Photos

1,732,397 photos uploaded!

Nearby

Snow Depth

Station Depth Elevation
No new snow has been reported.

Earthquake Activity

City Distance Mag. Time & Date
No recent earthquake activity has been reported nearby.
Minimum magnitude displayed is 2.5.

Coastal Water Temperatures

Place Temperature
No Stations Reporting

Nearby Weather Stations

Station Location Temp. Heat Index Dew Point Humidity Wind Precip. Elev Updated Type
Sellersville, Jay, FL 77.2 °F 78 °F 77 °F 99% North  at  0.0 mph 0.00 in / hr 240 ft 8:40 PM CDT Rapid Fire
Jenkins Farm, Jay, FL 73.3 °F - 72 °F 95% West  at  0.0 mph 0.00 in / hr 262 ft 1:14 AM EDT Normal
B.E.C., Atmore, AL 73.0 °F - 72 °F 96% WSW  at  0.0 mph 0.00 in / hr 272 ft 12:20 AM CDT Normal

Show More Stations Show Fewer Stations